Terminal Aerodrome Forecast
Issued by NWS

Home | Current Version | Previous Version | Text Only | Print | Product List | Glossary On
Versions: 1 2 3 4 5 6 7 8 9 10 11 12 13 14 15
000
FTAK31 PANC 241727
TAFAHO
TAF
PAHO 241727Z 2418/2518 13015G25KT 6SM -RA OVC030 WS020/16045KT
     FM242300 20015G25KT 5SM -RA BR SCT015 OVC025
     FM250300 19012G20KT P6SM VCSH SCT030 BKN050=

USA.gov is the U.S. government's official web portal to all federal, state and local government web resources and services.